Terminal Aerodrome Forecast
Issued by NWS Missoula, MT

Home | Current Version | Previous Version | Text Only | Print | Product List | Glossary On
Versions: 1 2 3 4 5 6 7 8 9 10 11 12
068
FTUS45 KMSO 050525
TAFMSO
TAF
KMSO 050525Z 0506/0606 VRB05KT P6SM BKN150
     FM052200 34011KT P6SM VCTS SCT070CB BKN150
     FM060300 01015G22KT P6SM BKN070 BKN150=

USA.gov is the U.S. government's official web portal to all federal, state and local government web resources and services.